Monticello Municipal Ellis Field
KLLQ : now visible

Airfield :











YOU CAN JOIN US ON...

 
LOGIN :

Register | Disclaimer

   EN    FR    IT 

 









Legend :    VFR   Marginal VFR   IFR   Intensive IFR   Very Intensive IFR
Visi :
Ceiling :
>= 8 km
>= 3000ft
5 to 8 km
1000 to 3000 ft
1500m to 5 km
500 to 1000 ft
800 to 1500m
200 to 500 ft
< 800m
< 200 ft
Symbols :   Thunderstorms  Fog  Heavy snow  Heavy precipitations  Wind > 20 kt






- Airport Elevation : 270 ft


KLLQ - Monticello Municipal Ellis Field

CURRENT METAR :
  • 271453Z AUTO 04011KT 1 3/4SM BR OVC003 11/11 A3015 RMK AO2 SLP209 T01110106 50005

EXPIRED METARs :
  • 271449Z AUTO 04010G15KT 1 3/4SM BR OVC003 11/11 A3015 RMK AO2
  • 271429Z AUTO 04009KT 2SM BR OVC002 11/11 A3016 RMK AO2 T01110106
  • 271353Z AUTO 03007KT 1SM BR OVC002 11/11 A3015 RMK AO2 SLP208 T01110111
  • 271338Z AUTO 02007KT 340V050 1SM BR OVC002 11/11 A3014 RMK AO2 T01110111
  • 271253Z AUTO VRB06KT 3/4SM BR OVC002 12/11 A3014 RMK AO2 SLP204 T01170111
  • 271244Z AUTO 04005KT 1 1/4SM BR OVC002 12/11 A3013 RMK AO2 T01170111

TAF KLLQ
Valid from the 27 at 12:00 until the 28 at 12:00 UTC


271140Z 2712/2812 01010KT 1SM BR OVC002
TEMPO 2712/2715 3SM BR OVC006
FM271500 04009KT 6SM BR BKN007 OVC015
FM271800 03008KT P6SM BKN015 OVC030
FM280600 02006KT 6SM BR BKN007 OVC015
PROB30 2806/2812 4SM -RA OVC007
KZME FIR / North America



MET'MAP, your aeronautical weather chart ! - Copyright ORBIFLY December 2007 - Disclaimer

ORBIFLY MET'MAP TEAM :

Programming & Development : Alexandra Zaïnal
Concept & original design : Baudouin d'Aumeries
Assistance for programming : Marc-Olivier Méhu
Technical & hardware support : Manuel Goepfert

Contact : metmap@orbifly.com




SOURCES & CREDITS :

   NOAA       Earth
Advisory